sensor_id;sensor_type;location;lat;lon;timestamp;temperature;humidity
33460;DHT22;19795;53.160;6.612;2022-12-18T07:15:55;-6.40;99.90
33460;DHT22;19795;53.160;6.612;2022-12-18T07:18:27;-6.30;99.90
33460;DHT22;19795;53.160;6.612;2022-12-18T07:23:28;-6.30;99.90
33460;DHT22;19795;53.160;6.612;2022-12-18T07:25:54;-6.30;99.90
33460;DHT22;19795;53.160;6.612;2022-12-18T07:28:20;-6.20;99.90
33460;DHT22;19795;53.160;6.612;2022-12-18T07:30:45;-6.10;99.90
33460;DHT22;19795;53.160;6.612;2022-12-18T07:33:11;-6.20;99.90
33460;DHT22;19795;53.160;6.612;2022-12-18T07:35:36;-6.30;99.90
33460;DHT22;19795;53.160;6.612;2022-12-18T07:38:02;-6.10;99.90
33460;DHT22;19795;53.160;6.612;2022-12-18T07:40:28;-6.10;99.90
33460;DHT22;19795;53.160;6.612;2022-12-18T07:42:53;-6.10;99.90
33460;DHT22;19795;53.160;6.612;2022-12-18T07:45:19;-6.10;99.90
33460;DHT22;19795;53.160;6.612;2022-12-18T07:47:44;-6.20;99.90
33460;DHT22;19795;53.160;6.612;2022-12-18T07:50:11;-6.20;99.90
33460;DHT22;19795;53.160;6.612;2022-12-18T07:52:36;-6.20;99.90
33460;DHT22;19795;53.160;6.612;2022-12-18T07:55:02;-6.30;99.90
33460;DHT22;19795;53.160;6.612;2022-12-18T07:57:28;-6.30;99.90
33460;DHT22;19795;53.160;6.612;2022-12-18T07:59:53;-6.30;99.90
33460;DHT22;19795;53.160;6.612;2022-12-18T08:02:19;-6.30;99.90
33460;DHT22;19795;53.160;6.612;2022-12-18T08:04:45;-6.20;99.90
33460;DHT22;19795;53.160;6.612;2022-12-18T08:07:10;-6.10;99.90
33460;DHT22;19795;53.160;6.612;2022-12-18T08:09:36;-6.10;99.90
33460;DHT22;19795;53.160;6.612;2022-12-18T08:12:01;-6.10;99.90
33460;DHT22;19795;53.160;6.612;2022-12-18T08:14:27;-6.10;99.90
33460;DHT22;19795;53.160;6.612;2022-12-18T08:16:53;-6.10;99.90
33460;DHT22;19795;53.160;6.612;2022-12-18T08:19:18;-6.10;99.90
33460;DHT22;19795;53.160;6.612;2022-12-18T08:21:44;-6.10;99.90
33460;DHT22;19795;53.160;6.612;2022-12-18T08:24:10;-6.20;99.90
33460;DHT22;19795;53.160;6.612;2022-12-18T08:26:36;-6.20;99.90
33460;DHT22;19795;53.160;6.612;2022-12-18T08:29:02;-6.20;99.90
33460;DHT22;19795;53.160;6.612;2022-12-18T08:31:29;-6.30;99.90
33460;DHT22;19795;53.160;6.612;2022-12-18T08:33:55;-6.40;99.90
33460;DHT22;19795;53.160;6.612;2022-12-18T08:36:21;-6.40;99.90
33460;DHT22;19795;53.160;6.612;2022-12-18T08:38:47;-6.40;99.90
33460;DHT22;19795;53.160;6.612;2022-12-18T08:41:15;-6.30;99.90
33460;DHT22;19795;53.160;6.612;2022-12-18T08:43:41;-6.30;99.90
33460;DHT22;19795;53.160;6.612;2022-12-18T08:46:27;-6.30;99.90
33460;DHT22;19795;53.160;6.612;2022-12-18T08:48:54;-6.20;99.90
33460;DHT22;19795;53.160;6.612;2022-12-18T08:51:21;-6.10;99.90
33460;DHT22;19795;53.160;6.612;2022-12-18T08:53:47;-6.10;99.90
33460;DHT22;19795;53.160;6.612;2022-12-18T08:56:13;-6.10;99.90
33460;DHT22;19795;53.160;6.612;2022-12-18T08:58:40;-6.00;99.90
33460;DHT22;19795;53.160;6.612;2022-12-18T09:01:08;-6.00;99.90
33460;DHT22;19795;53.160;6.612;2022-12-18T09:03:35;-5.90;99.90
33460;DHT22;19795;53.160;6.612;2022-12-18T09:06:01;-5.90;99.90
33460;DHT22;19795;53.160;6.612;2022-12-18T09:08:27;-5.80;99.90
33460;DHT22;19795;53.160;6.612;2022-12-18T09:10:53;-5.70;99.90
33460;DHT22;19795;53.160;6.612;2022-12-18T09:13:19;-5.70;99.90
33460;DHT22;19795;53.160;6.612;2022-12-18T09:15:47;-5.70;99.90
33460;DHT22;19795;53.160;6.612;2022-12-18T09:18:15;-5.60;99.90
33460;DHT22;19795;53.160;6.612;2022-12-18T09:20:40;-5.60;99.90
33460;DHT22;19795;53.160;6.612;2022-12-18T09:23:07;-5.50;99.90
33460;DHT22;19795;53.160;6.612;2022-12-18T09:25:33;-5.40;99.90
33460;DHT22;19795;53.160;6.612;2022-12-18T09:28:02;-5.30;99.90
33460;DHT22;19795;53.160;6.612;2022-12-18T09:30:28;-5.30;99.90
33460;DHT22;19795;53.160;6.612;2022-12-18T09:32:54;-5.20;99.90
33460;DHT22;19795;53.160;6.612;2022-12-18T09:35:19;-5.10;99.90
33460;DHT22;19795;53.160;6.612;2022-12-18T09:37:45;-5.00;99.90
33460;DHT22;19795;53.160;6.612;2022-12-18T09:40:18;-4.90;99.90
33460;DHT22;19795;53.160;6.612;2022-12-18T09:42:48;-4.80;99.90
33460;DHT22;19795;53.160;6.612;2022-12-18T09:45:16;-4.70;99.90
33460;DHT22;19795;53.160;6.612;2022-12-18T09:47:43;-4.60;99.90
33460;DHT22;19795;53.160;6.612;2022-12-18T09:50:30;-4.50;99.90
33460;DHT22;19795;53.160;6.612;2022-12-18T09:53:04;-4.40;99.90
33460;DHT22;19795;53.160;6.612;2022-12-18T09:55:32;-4.30;99.90
33460;DHT22;19795;53.160;6.612;2022-12-18T09:58:05;-4.30;99.90
33460;DHT22;19795;53.160;6.612;2022-12-18T10:00:31;-4.30;99.90
33460;DHT22;19795;53.160;6.612;2022-12-18T10:03:09;-4.30;99.90
33460;DHT22;19795;53.160;6.612;2022-12-18T10:06:02;-4.30;99.90
33460;DHT22;19795;53.160;6.612;2022-12-18T10:08:51;-4.30;99.90
33460;DHT22;19795;53.160;6.612;2022-12-18T10:23:12;-4.20;99.90
33460;DHT22;19795;53.160;6.612;2022-12-18T10:26:02;-4.10;99.90
33460;DHT22;19795;53.160;6.612;2022-12-18T10:28:30;-4.00;99.90
33460;DHT22;19795;53.160;6.612;2022-12-18T10:30:58;-3.90;99.90
33460;DHT22;19795;53.160;6.612;2022-12-18T10:33:28;-3.80;99.90
33460;DHT22;19795;53.160;6.612;2022-12-18T10:35:54;-3.80;99.90
33460;DHT22;19795;53.160;6.612;2022-12-18T10:38:22;-3.70;99.90
33460;DHT22;19795;53.160;6.612;2022-12-18T10:43:32;-3.60;99.90
33460;DHT22;19795;53.160;6.612;2022-12-18T10:46:19;-3.60;99.90
33460;DHT22;19795;53.160;6.612;2022-12-18T10:51:32;-3.40;99.90
33460;DHT22;19795;53.160;6.612;2022-12-18T10:54:21;-3.30;99.90
33460;DHT22;19795;53.160;6.612;2022-12-18T10:56:47;-3.30;99.90
33460;DHT22;19795;53.160;6.612;2022-12-18T10:59:16;-3.20;99.90
33460;DHT22;19795;53.160;6.612;2022-12-18T11:01:54;-3.20;99.90
33460;DHT22;19795;53.160;6.612;2022-12-18T11:04:35;-3.20;99.90
33460;DHT22;19795;53.160;6.612;2022-12-18T11:07:08;-3.10;99.90
33460;DHT22;19795;53.160;6.612;2022-12-18T11:09:37;-3.00;99.90
33460;DHT22;19795;53.160;6.612;2022-12-18T11:12:18;-3.00;99.90
33460;DHT22;19795;53.160;6.612;2022-12-18T11:14:54;-2.90;99.90
33460;DHT22;19795;53.160;6.612;2022-12-18T11:17:32;-2.80;99.90
33460;DHT22;19795;53.160;6.612;2022-12-18T11:20:05;-2.70;99.90
33460;DHT22;19795;53.160;6.612;2022-12-18T11:22:33;-2.70;99.90
33460;DHT22;19795;53.160;6.612;2022-12-18T11:25:18;-2.70;99.90
33460;DHT22;19795;53.160;6.612;2022-12-18T11:27:53;-2.60;99.90
33460;DHT22;19795;53.160;6.612;2022-12-18T11:32:50;-2.20;99.90
33460;DHT22;19795;53.160;6.612;2022-12-18T11:35:21;-2.40;99.90
33460;DHT22;19795;53.160;6.612;2022-12-18T11:37:56;-2.30;99.90
33460;DHT22;19795;53.160;6.612;2022-12-18T11:40:45;-2.30;99.90
33460;DHT22;19795;53.160;6.612;2022-12-18T11:43:17;-1.90;99.90
33460;DHT22;19795;53.160;6.612;2022-12-18T11:45:52;-2.20;99.90
33460;DHT22;19795;53.160;6.612;2022-12-18T11:48:27;-2.20;99.90
33460;DHT22;19795;53.160;6.612;2022-12-18T11:50:58;-2.20;99.90
33460;DHT22;19795;53.160;6.612;2022-12-18T11:53:27;-2.20;99.90
33460;DHT22;19795;53.160;6.612;2022-12-18T11:56:00;-2.10;99.90
33460;DHT22;19795;53.160;6.612;2022-12-18T12:21:05;-2.00;99.90
33460;DHT22;19795;53.160;6.612;2022-12-18T12:38:07;-1.90;99.90
33460;DHT22;19795;53.160;6.612;2022-12-18T12:40:38;-1.80;99.90
33460;DHT22;19795;53.160;6.612;2022-12-18T12:48:56;-1.70;99.90
33460;DHT22;19795;53.160;6.612;2022-12-18T12:51:28;-1.70;99.90
33460;DHT22;19795;53.160;6.612;2022-12-18T12:53:56;-1.70;99.90
33460;DHT22;19795;53.160;6.612;2022-12-18T12:56:26;-1.60;99.90
33460;DHT22;19795;53.160;6.612;2022-12-18T13:01:49;-1.60;99.90
33460;DHT22;19795;53.160;6.612;2022-12-18T13:05:02;-1.50;99.90
33460;DHT22;19795;53.160;6.612;2022-12-18T13:07:15;-1.50;99.90
33460;DHT22;19795;53.160;6.612;2022-12-18T13:12:36;-1.30;99.90
33460;DHT22;19795;53.160;6.612;2022-12-18T13:20:38;-1.30;99.90
33460;DHT22;19795;53.160;6.612;2022-12-18T13:31:10;-1.30;99.90
33460;DHT22;19795;53.160;6.612;2022-12-18T13:33:41;-1.30;99.90
33460;DHT22;19795;53.160;6.612;2022-12-18T13:36:28;-1.30;99.90
33460;DHT22;19795;53.160;6.612;2022-12-18T13:39:32;-1.30;99.90
33460;DHT22;19795;53.160;6.612;2022-12-18T13:44:33;-1.30;99.90
33460;DHT22;19795;53.160;6.612;2022-12-18T13:47:02;-1.20;99.90
33460;DHT22;19795;53.160;6.612;2022-12-18T13:49:39;-1.30;99.90
33460;DHT22;19795;53.160;6.612;2022-12-18T13:52:36;-1.30;99.90
33460;DHT22;19795;53.160;6.612;2022-12-18T13:55:06;-1.30;99.90
33460;DHT22;19795;53.160;6.612;2022-12-18T13:57:37;-1.30;99.90
33460;DHT22;19795;53.160;6.612;2022-12-18T14:02:48;-1.40;99.90
33460;DHT22;19795;53.160;6.612;2022-12-18T14:05:35;-1.40;99.90
33460;DHT22;19795;53.160;6.612;2022-12-18T14:08:05;-1.40;99.90
33460;DHT22;19795;53.160;6.612;2022-12-18T14:10:33;-1.40;99.90
33460;DHT22;19795;53.160;6.612;2022-12-18T14:13:06;-1.30;99.90
33460;DHT22;19795;53.160;6.612;2022-12-18T14:15:42;-1.40;99.90
33460;DHT22;19795;53.160;6.612;2022-12-18T14:18:24;-1.40;99.90
33460;DHT22;19795;53.160;6.612;2022-12-18T14:20:52;-1.40;99.90
33460;DHT22;19795;53.160;6.612;2022-12-18T14:23:39;-1.40;99.90
33460;DHT22;19795;53.160;6.612;2022-12-18T14:26:25;-1.50;99.90
33460;DHT22;19795;53.160;6.612;2022-12-18T14:28:58;-1.50;99.90
33460;DHT22;19795;53.160;6.612;2022-12-18T14:31:29;-1.60;99.90
33460;DHT22;19795;53.160;6.612;2022-12-18T14:33:55;-1.60;99.90
33460;DHT22;19795;53.160;6.612;2022-12-18T14:36:26;-1.60;99.90
33460;DHT22;19795;53.160;6.612;2022-12-18T14:38:54;-1.60;99.90
33460;DHT22;19795;53.160;6.612;2022-12-18T14:41:21;-1.60;99.90
33460;DHT22;19795;53.160;6.612;2022-12-18T14:43:49;-1.60;99.90
33460;DHT22;19795;53.160;6.612;2022-12-18T14:46:38;-1.60;99.90
33460;DHT22;19795;53.160;6.612;2022-12-18T14:49:32;-1.60;99.90
33460;DHT22;19795;53.160;6.612;2022-12-18T14:52:03;-1.60;99.90
33460;DHT22;19795;53.160;6.612;2022-12-18T14:54:30;-1.70;99.90
33460;DHT22;19795;53.160;6.612;2022-12-18T14:57:05;-1.70;99.90
33460;DHT22;19795;53.160;6.612;2022-12-18T14:59:31;-1.70;99.90
33460;DHT22;19795;53.160;6.612;2022-12-18T15:09:37;-1.80;99.90
33460;DHT22;19795;53.160;6.612;2022-12-18T15:12:04;-1.80;99.90
33460;DHT22;19795;53.160;6.612;2022-12-18T15:16:56;-1.90;99.90
33460;DHT22;19795;53.160;6.612;2022-12-18T15:19:41;-2.00;99.90
33460;DHT22;19795;53.160;6.612;2022-12-18T15:22:29;-1.90;99.90
33460;DHT22;19795;53.160;6.612;2022-12-18T15:24:56;-2.00;99.90
33460;DHT22;19795;53.160;6.612;2022-12-18T15:32:36;-2.00;99.90
33460;DHT22;19795;53.160;6.612;2022-12-18T15:35:21;-1.50;99.90
33460;DHT22;19795;53.160;6.612;2022-12-18T15:37:48;-2.00;99.90
33460;DHT22;19795;53.160;6.612;2022-12-18T15:40:16;-1.40;99.90
33460;DHT22;19795;53.160;6.612;2022-12-18T15:42:43;-2.00;99.90
33460;DHT22;19795;53.160;6.612;2022-12-18T15:45:28;-2.20;99.90
33460;DHT22;19795;53.160;6.612;2022-12-18T15:47:54;-2.00;99.90
33460;DHT22;19795;53.160;6.612;2022-12-18T15:50:19;-2.00;99.90
33460;DHT22;19795;53.160;6.612;2022-12-18T15:52:47;-1.30;99.90
33460;DHT22;19795;53.160;6.612;2022-12-18T15:55:22;-2.00;99.90
33460;DHT22;19795;53.160;6.612;2022-12-18T15:58:07;-1.80;99.90
33460;DHT22;19795;53.160;6.612;2022-12-18T16:00:35;-2.00;99.90
33460;DHT22;19795;53.160;6.612;2022-12-18T16:03:02;-1.10;99.90
33460;DHT22;19795;53.160;6.612;2022-12-18T16:05:28;-2.00;99.90
33460;DHT22;19795;53.160;6.612;2022-12-18T16:07:54;-2.00;99.90
33460;DHT22;19795;53.160;6.612;2022-12-18T16:10:20;-2.00;99.90
33460;DHT22;19795;53.160;6.612;2022-12-18T16:12:46;-1.90;99.90
33460;DHT22;19795;53.160;6.612;2022-12-18T16:15:15;-2.10;99.90
33460;DHT22;19795;53.160;6.612;2022-12-18T16:17:42;-1.80;99.90
33460;DHT22;19795;53.160;6.612;2022-12-18T16:20:20;-2.10;99.90
33460;DHT22;19795;53.160;6.612;2022-12-18T16:22:47;-2.00;99.90
33460;DHT22;19795;53.160;6.612;2022-12-18T16:25:22;-2.10;99.90
33460;DHT22;19795;53.160;6.612;2022-12-18T16:27:49;-2.00;99.90
33460;DHT22;19795;53.160;6.612;2022-12-18T16:30:18;-1.80;99.90
33460;DHT22;19795;53.160;6.612;2022-12-18T16:32:45;-2.10;99.90
33460;DHT22;19795;53.160;6.612;2022-12-18T16:35:15;-1.90;99.90
33460;DHT22;19795;53.160;6.612;2022-12-18T16:37:44;-2.00;99.90
33460;DHT22;19795;53.160;6.612;2022-12-18T16:40:12;-2.10;99.90
33460;DHT22;19795;53.160;6.612;2022-12-18T16:42:39;-2.30;99.90
33460;DHT22;19795;53.160;6.612;2022-12-18T16:45:07;-2.10;99.90
33460;DHT22;19795;53.160;6.612;2022-12-18T16:47:33;-2.00;99.90
33460;DHT22;19795;53.160;6.612;2022-12-18T16:49:59;-2.10;99.90
33460;DHT22;19795;53.160;6.612;2022-12-18T16:52:25;-2.00;99.90
33460;DHT22;19795;53.160;6.612;2022-12-18T16:54:51;-2.00;99.90
33460;DHT22;19795;53.160;6.612;2022-12-18T16:57:18;-1.90;99.90
33460;DHT22;19795;53.160;6.612;2022-12-18T16:59:45;-1.90;99.90
33460;DHT22;19795;53.160;6.612;2022-12-18T17:02:17;-1.90;99.90
33460;DHT22;19795;53.160;6.612;2022-12-18T17:04:43;-1.80;99.90
33460;DHT22;19795;53.160;6.612;2022-12-18T17:07:09;-1.60;99.90
33460;DHT22;19795;53.160;6.612;2022-12-18T17:09:36;-1.80;99.90
33460;DHT22;19795;53.160;6.612;2022-12-18T17:12:02;-1.70;99.90
33460;DHT22;19795;53.160;6.612;2022-12-18T17:14:28;-1.70;99.90
33460;DHT22;19795;53.160;6.612;2022-12-18T17:16:54;-1.70;99.90
33460;DHT22;19795;53.160;6.612;2022-12-18T17:19:19;-1.60;99.90
33460;DHT22;19795;53.160;6.612;2022-12-18T17:21:47;-1.60;99.90
33460;DHT22;19795;53.160;6.612;2022-12-18T17:24:14;-1.60;99.90
33460;DHT22;19795;53.160;6.612;2022-12-18T17:26:40;-1.60;99.90
33460;DHT22;19795;53.160;6.612;2022-12-18T17:29:06;-1.60;99.90
33460;DHT22;19795;53.160;6.612;2022-12-18T17:31:33;-1.50;99.90
33460;DHT22;19795;53.160;6.612;2022-12-18T17:34:00;-1.50;99.90
33460;DHT22;19795;53.160;6.612;2022-12-18T17:36:27;-1.50;99.90
33460;DHT22;19795;53.160;6.612;2022-12-18T17:38:58;-1.40;99.90
33460;DHT22;19795;53.160;6.612;2022-12-18T17:41:25;-1.40;99.90
33460;DHT22;19795;53.160;6.612;2022-12-18T17:43:52;-1.40;99.90
33460;DHT22;19795;53.160;6.612;2022-12-18T17:46:18;-1.40;99.90
33460;DHT22;19795;53.160;6.612;2022-12-18T17:48:45;-1.40;99.90
33460;DHT22;19795;53.160;6.612;2022-12-18T17:51:14;-1.40;99.90
33460;DHT22;19795;53.160;6.612;2022-12-18T17:53:41;-1.40;99.90
33460;DHT22;19795;53.160;6.612;2022-12-18T17:56:08;-1.40;99.90
33460;DHT22;19795;53.160;6.612;2022-12-18T17:58:36;-1.40;99.90
33460;DHT22;19795;53.160;6.612;2022-12-18T18:01:02;-1.40;99.90
33460;DHT22;19795;53.160;6.612;2022-12-18T18:03:31;-1.40;99.90
33460;DHT22;19795;53.160;6.612;2022-12-18T18:06:00;-1.40;99.90
33460;DHT22;19795;53.160;6.612;2022-12-18T18:08:27;-1.40;99.90
33460;DHT22;19795;53.160;6.612;2022-12-18T18:10:54;-1.30;99.90
33460;DHT22;19795;53.160;6.612;2022-12-18T18:13:22;-1.30;99.90
33460;DHT22;19795;53.160;6.612;2022-12-18T18:16:08;-1.30;99.90
33460;DHT22;19795;53.160;6.612;2022-12-18T18:18:34;-1.30;99.90
33460;DHT22;19795;53.160;6.612;2022-12-18T18:21:07;-1.40;99.90
33460;DHT22;19795;53.160;6.612;2022-12-18T18:23:34;-1.30;99.90
33460;DHT22;19795;53.160;6.612;2022-12-18T18:26:04;-1.20;99.90
33460;DHT22;19795;53.160;6.612;2022-12-18T18:28:30;-1.30;99.90
33460;DHT22;19795;53.160;6.612;2022-12-18T18:30:56;-1.20;99.90
33460;DHT22;19795;53.160;6.612;2022-12-18T18:33:21;-1.20;99.90
33460;DHT22;19795;53.160;6.612;2022-12-18T18:35:47;-1.20;99.90
33460;DHT22;19795;53.160;6.612;2022-12-18T18:38:13;-1.20;99.90
33460;DHT22;19795;53.160;6.612;2022-12-18T18:40:38;-1.30;99.90
33460;DHT22;19795;53.160;6.612;2022-12-18T18:43:04;-1.30;99.90
33460;DHT22;19795;53.160;6.612;2022-12-18T18:45:29;-1.20;99.90
33460;DHT22;19795;53.160;6.612;2022-12-18T18:47:55;-1.20;99.90
33460;DHT22;19795;53.160;6.612;2022-12-18T18:50:21;-1.20;99.90
33460;DHT22;19795;53.160;6.612;2022-12-18T18:52:46;-1.20;99.90
33460;DHT22;19795;53.160;6.612;2022-12-18T18:55:12;-1.20;99.90
33460;DHT22;19795;53.160;6.612;2022-12-18T18:57:37;-1.10;99.90
33460;DHT22;19795;53.160;6.612;2022-12-18T19:00:04;-1.10;99.90
33460;DHT22;19795;53.160;6.612;2022-12-18T19:02:29;-1.10;99.90
33460;DHT22;19795;53.160;6.612;2022-12-18T19:04:55;-1.10;99.90
33460;DHT22;19795;53.160;6.612;2022-12-18T19:07:22;-1.10;99.90
33460;DHT22;19795;53.160;6.612;2022-12-18T19:09:48;-1.00;99.90
33460;DHT22;19795;53.160;6.612;2022-12-18T19:12:16;-0.90;99.90
33460;DHT22;19795;53.160;6.612;2022-12-18T19:15:01;-1.00;99.90
33460;DHT22;19795;53.160;6.612;2022-12-18T19:17:27;-1.00;99.90
33460;DHT22;19795;53.160;6.612;2022-12-18T19:19:53;-1.00;99.90
33460;DHT22;19795;53.160;6.612;2022-12-18T19:22:18;-0.90;99.90
33460;DHT22;19795;53.160;6.612;2022-12-18T19:24:44;-0.90;99.90
33460;DHT22;19795;53.160;6.612;2022-12-18T19:27:10;-0.90;99.90
33460;DHT22;19795;53.160;6.612;2022-12-18T19:29:36;-0.80;99.90
33460;DHT22;19795;53.160;6.612;2022-12-18T19:32:02;-0.80;99.90
33460;DHT22;19795;53.160;6.612;2022-12-18T19:34:27;-0.80;99.90
33460;DHT22;19795;53.160;6.612;2022-12-18T19:36:53;-0.70;99.90
33460;DHT22;19795;53.160;6.612;2022-12-18T19:39:19;-0.70;99.90
33460;DHT22;19795;53.160;6.612;2022-12-18T19:41:46;-0.60;99.90
33460;DHT22;19795;53.160;6.612;2022-12-18T19:44:14;-0.60;99.90
33460;DHT22;19795;53.160;6.612;2022-12-18T19:46:40;-0.50;99.90
33460;DHT22;19795;53.160;6.612;2022-12-18T19:49:08;-0.50;99.90
33460;DHT22;19795;53.160;6.612;2022-12-18T19:51:34;-0.40;99.90
33460;DHT22;19795;53.160;6.612;2022-12-18T19:54:00;-0.40;99.90
33460;DHT22;19795;53.160;6.612;2022-12-18T19:56:28;-0.40;99.90
33460;DHT22;19795;53.160;6.612;2022-12-18T19:58:54;-0.40;99.90
33460;DHT22;19795;53.160;6.612;2022-12-18T20:01:22;-0.40;99.90
33460;DHT22;19795;53.160;6.612;2022-12-18T20:03:48;-0.40;99.90
33460;DHT22;19795;53.160;6.612;2022-12-18T20:06:27;-0.40;99.90
33460;DHT22;19795;53.160;6.612;2022-12-18T20:08:54;-0.30;99.90
33460;DHT22;19795;53.160;6.612;2022-12-18T20:11:20;-0.30;99.90
33460;DHT22;19795;53.160;6.612;2022-12-18T20:13:46;-0.30;99.90
33460;DHT22;19795;53.160;6.612;2022-12-18T20:16:12;-0.30;99.90
33460;DHT22;19795;53.160;6.612;2022-12-18T20:18:38;-0.20;99.90
33460;DHT22;19795;53.160;6.612;2022-12-18T20:21:03;-0.20;99.90
33460;DHT22;19795;53.160;6.612;2022-12-18T20:23:29;-0.20;99.90
33460;DHT22;19795;53.160;6.612;2022-12-18T20:25:55;-0.20;99.90
33460;DHT22;19795;53.160;6.612;2022-12-18T20:28:22;-0.20;99.90
33460;DHT22;19795;53.160;6.612;2022-12-18T20:30:48;-0.20;99.90
33460;DHT22;19795;53.160;6.612;2022-12-18T20:33:14;-0.20;99.90
33460;DHT22;19795;53.160;6.612;2022-12-18T20:35:40;-0.20;99.90
33460;DHT22;19795;53.160;6.612;2022-12-18T20:38:05;-0.10;99.90
33460;DHT22;19795;53.160;6.612;2022-12-18T20:40:31;-0.10;99.90
33460;DHT22;19795;53.160;6.612;2022-12-18T20:42:57;-0.10;99.90
33460;DHT22;19795;53.160;6.612;2022-12-18T20:45:24;-0.10;99.90
33460;DHT22;19795;53.160;6.612;2022-12-18T20:47:53;0.00;99.90
33460;DHT22;19795;53.160;6.612;2022-12-18T20:50:18;0.00;99.90
33460;DHT22;19795;53.160;6.612;2022-12-18T20:52:44;0.00;99.90
33460;DHT22;19795;53.160;6.612;2022-12-18T20:55:11;0.10;99.90
33460;DHT22;19795;53.160;6.612;2022-12-18T20:57:37;0.00;99.90
33460;DHT22;19795;53.160;6.612;2022-12-18T21:00:03;0.00;99.90
33460;DHT22;19795;53.160;6.612;2022-12-18T21:02:29;0.00;99.90
33460;DHT22;19795;53.160;6.612;2022-12-18T21:04:55;0.00;99.90
33460;DHT22;19795;53.160;6.612;2022-12-18T21:07:20;0.00;99.90
33460;DHT22;19795;53.160;6.612;2022-12-18T21:09:46;0.00;99.90
33460;DHT22;19795;53.160;6.612;2022-12-18T21:12:13;0.10;99.90
33460;DHT22;19795;53.160;6.612;2022-12-18T21:14:57;0.10;99.90
33460;DHT22;19795;53.160;6.612;2022-12-18T21:17:26;0.10;99.90
33460;DHT22;19795;53.160;6.612;2022-12-18T21:19:52;0.10;99.90
33460;DHT22;19795;53.160;6.612;2022-12-18T21:22:18;0.10;99.90
33460;DHT22;19795;53.160;6.612;2022-12-18T21:24:44;0.10;99.90
33460;DHT22;19795;53.160;6.612;2022-12-18T21:27:09;0.10;99.90
33460;DHT22;19795;53.160;6.612;2022-12-18T21:29:35;0.10;99.90
33460;DHT22;19795;53.160;6.612;2022-12-18T21:32:02;0.10;99.90
33460;DHT22;19795;53.160;6.612;2022-12-18T21:34:29;0.20;99.90
33460;DHT22;19795;53.160;6.612;2022-12-18T21:36:56;0.20;99.90
33460;DHT22;19795;53.160;6.612;2022-12-18T21:39:23;0.20;99.90
33460;DHT22;19795;53.160;6.612;2022-12-18T21:41:50;0.20;99.90
33460;DHT22;19795;53.160;6.612;2022-12-18T21:44:34;0.20;99.90
33460;DHT22;19795;53.160;6.612;2022-12-18T21:47:00;0.20;99.90
33460;DHT22;19795;53.160;6.612;2022-12-18T21:49:25;0.30;99.90
33460;DHT22;19795;53.160;6.612;2022-12-18T21:51:56;0.40;99.90
33460;DHT22;19795;53.160;6.612;2022-12-18T21:54:23;0.40;99.90
33460;DHT22;19795;53.160;6.612;2022-12-18T21:57:00;0.30;99.90
33460;DHT22;19795;53.160;6.612;2022-12-18T21:59:29;0.40;99.90
33460;DHT22;19795;53.160;6.612;2022-12-18T22:01:57;0.40;99.90
33460;DHT22;19795;53.160;6.612;2022-12-18T22:04:24;0.50;99.90
33460;DHT22;19795;53.160;6.612;2022-12-18T22:06:50;0.50;99.90
33460;DHT22;19795;53.160;6.612;2022-12-18T22:09:18;0.50;99.90
33460;DHT22;19795;53.160;6.612;2022-12-18T22:11:45;0.50;99.90
33460;DHT22;19795;53.160;6.612;2022-12-18T22:14:11;0.50;99.90
33460;DHT22;19795;53.160;6.612;2022-12-18T22:16:38;0.60;99.90
33460;DHT22;19795;53.160;6.612;2022-12-18T22:19:04;0.60;99.90
33460;DHT22;19795;53.160;6.612;2022-12-18T22:21:35;0.60;99.90
33460;DHT22;19795;53.160;6.612;2022-12-18T22:24:06;0.70;99.90
33460;DHT22;19795;53.160;6.612;2022-12-18T22:26:34;0.50;99.90
33460;DHT22;19795;53.160;6.612;2022-12-18T22:29:00;0.60;99.90
33460;DHT22;19795;53.160;6.612;2022-12-18T22:31:44;0.50;99.90
33460;DHT22;19795;53.160;6.612;2022-12-18T22:34:10;0.50;99.90
33460;DHT22;19795;53.160;6.612;2022-12-18T22:36:38;0.40;99.90
33460;DHT22;19795;53.160;6.612;2022-12-18T22:39:12;0.40;99.90
33460;DHT22;19795;53.160;6.612;2022-12-18T22:41:38;0.40;99.90
33460;DHT22;19795;53.160;6.612;2022-12-18T22:44:03;0.40;99.90
33460;DHT22;19795;53.160;6.612;2022-12-18T22:46:31;0.40;99.90
33460;DHT22;19795;53.160;6.612;2022-12-18T22:48:58;0.40;99.90
33460;DHT22;19795;53.160;6.612;2022-12-18T22:51:23;0.40;99.90
33460;DHT22;19795;53.160;6.612;2022-12-18T22:53:49;0.30;99.90
33460;DHT22;19795;53.160;6.612;2022-12-18T22:56:15;0.40;99.90
33460;DHT22;19795;53.160;6.612;2022-12-18T22:58:41;0.40;99.90
33460;DHT22;19795;53.160;6.612;2022-12-18T23:01:07;0.40;99.90
33460;DHT22;19795;53.160;6.612;2022-12-18T23:03:41;0.40;99.90
33460;DHT22;19795;53.160;6.612;2022-12-18T23:06:08;0.40;99.90
33460;DHT22;19795;53.160;6.612;2022-12-18T23:08:36;0.30;99.90
33460;DHT22;19795;53.160;6.612;2022-12-18T23:11:04;0.30;99.90
33460;DHT22;19795;53.160;6.612;2022-12-18T23:13:29;0.40;99.90
33460;DHT22;19795;53.160;6.612;2022-12-18T23:15:56;0.40;99.90
33460;DHT22;19795;53.160;6.612;2022-12-18T23:18:22;0.40;99.90
33460;DHT22;19795;53.160;6.612;2022-12-18T23:20:47;0.40;99.90
33460;DHT22;19795;53.160;6.612;2022-12-18T23:23:13;0.40;99.90
33460;DHT22;19795;53.160;6.612;2022-12-18T23:25:39;0.40;99.90
33460;DHT22;19795;53.160;6.612;2022-12-18T23:28:05;0.50;99.90
33460;DHT22;19795;53.160;6.612;2022-12-18T23:30:31;0.50;99.90
33460;DHT22;19795;53.160;6.612;2022-12-18T23:32:57;0.50;99.90
33460;DHT22;19795;53.160;6.612;2022-12-18T23:35:23;0.50;99.90
33460;DHT22;19795;53.160;6.612;2022-12-18T23:37:48;0.50;99.90
33460;DHT22;19795;53.160;6.612;2022-12-18T23:40:14;0.50;99.90
33460;DHT22;19795;53.160;6.612;2022-12-18T23:42:40;0.50;99.90
33460;DHT22;19795;53.160;6.612;2022-12-18T23:45:06;0.50;99.90
33460;DHT22;19795;53.160;6.612;2022-12-18T23:47:32;0.50;99.90
33460;DHT22;19795;53.160;6.612;2022-12-18T23:49:58;0.50;99.90
33460;DHT22;19795;53.160;6.612;2022-12-18T23:52:23;0.50;99.90
33460;DHT22;19795;53.160;6.612;2022-12-18T23:54:49;0.50;99.90
33460;DHT22;19795;53.160;6.612;2022-12-18T23:57:15;0.50;99.90
33460;DHT22;19795;53.160;6.612;2022-12-18T23:59:41;0.50;99.90
